sensor_id;sensor_type;location;lat;lon;timestamp;pressure;altitude;pressure_sealevel;temperature;humidity
11001;BME280;5553;48.506;8.870;2022-09-13T00:01:04;96171.69;;;11.86;100.00
11001;BME280;5553;48.506;8.870;2022-09-13T00:03:35;96172.91;;;11.97;100.00
11001;BME280;5553;48.506;8.870;2022-09-13T00:06:08;96170.69;;;11.94;100.00
11001;BME280;5553;48.506;8.870;2022-09-13T00:08:37;96169.44;;;11.90;100.00
11001;BME280;5553;48.506;8.870;2022-09-13T00:11:06;96163.19;;;11.84;100.00
11001;BME280;5553;48.506;8.870;2022-09-13T00:13:34;96165.19;;;11.75;100.00
11001;BME280;5553;48.506;8.870;2022-09-13T00:16:02;96171.69;;;11.79;100.00
11001;BME280;5553;48.506;8.870;2022-09-13T00:18:31;96173.91;;;11.82;100.00
11001;BME280;5553;48.506;8.870;2022-09-13T00:21:09;96168.44;;;11.77;100.00
11001;BME280;5553;48.506;8.870;2022-09-13T00:23:39;96166.81;;;11.76;100.00
11001;BME280;5553;48.506;8.870;2022-09-13T00:26:10;96168.69;;;11.49;100.00
11001;BME280;5553;48.506;8.870;2022-09-13T00:28:39;96177.03;;;11.59;100.00
11001;BME280;5553;48.506;8.870;2022-09-13T00:31:10;96172.97;;;11.44;100.00
11001;BME280;5553;48.506;8.870;2022-09-13T00:33:38;96165.22;;;11.55;100.00
11001;BME280;5553;48.506;8.870;2022-09-13T00:36:10;96165.03;;;11.50;100.00
11001;BME280;5553;48.506;8.870;2022-09-13T00:38:40;96163.81;;;11.53;100.00
11001;BME280;5553;48.506;8.870;2022-09-13T00:41:12;96167.84;;;11.55;100.00
11001;BME280;5553;48.506;8.870;2022-09-13T00:43:46;96160.16;;;11.41;100.00
11001;BME280;5553;48.506;8.870;2022-09-13T00:46:20;96171.75;;;11.33;100.00
11001;BME280;5553;48.506;8.870;2022-09-13T00:48:56;96169.53;;;11.23;100.00
11001;BME280;5553;48.506;8.870;2022-09-13T00:51:29;96170.13;;;11.32;100.00
11001;BME280;5553;48.506;8.870;2022-09-13T00:53:58;96162.00;;;11.33;100.00
11001;BME280;5553;48.506;8.870;2022-09-13T00:56:30;96157.94;;;11.37;100.00
11001;BME280;5553;48.506;8.870;2022-09-13T00:59:02;96163.63;;;11.34;100.00
11001;BME280;5553;48.506;8.870;2022-09-13T01:01:36;96170.53;;;11.42;100.00
11001;BME280;5553;48.506;8.870;2022-09-13T01:04:06;96162.00;;;11.27;100.00
11001;BME280;5553;48.506;8.870;2022-09-13T01:06:37;96160.78;;;11.16;100.00
11001;BME280;5553;48.506;8.870;2022-09-13T01:09:06;96168.31;;;11.06;100.00
11001;BME280;5553;48.506;8.870;2022-09-13T01:11:41;96170.94;;;11.06;100.00
11001;BME280;5553;48.506;8.870;2022-09-13T01:14:16;96161.19;;;11.00;100.00
11001;BME280;5553;48.506;8.870;2022-09-13T01:16:45;96168.91;;;10.95;100.00
11001;BME280;5553;48.506;8.870;2022-09-13T01:19:14;96161.78;;;10.88;100.00
11001;BME280;5553;48.506;8.870;2022-09-13T01:24:55;96161.16;;;10.80;100.00
11001;BME280;5553;48.506;8.870;2022-09-13T01:27:38;96161.78;;;10.75;100.00
11001;BME280;5553;48.506;8.870;2022-09-13T01:30:17;96169.06;;;10.73;100.00
11001;BME280;5553;48.506;8.870;2022-09-13T01:33:07;96164.81;;;10.72;100.00
11001;BME280;5553;48.506;8.870;2022-09-13T01:35:46;96176.19;;;10.93;100.00
11001;BME280;5553;48.506;8.870;2022-09-13T01:38:33;96180.47;;;10.80;100.00
11001;BME280;5553;48.506;8.870;2022-09-13T01:41:16;96173.16;;;10.82;100.00
11001;BME280;5553;48.506;8.870;2022-09-13T01:43:55;96170.88;;;10.73;100.00
11001;BME280;5553;48.506;8.870;2022-09-13T01:46:31;96185.91;;;10.72;100.00
11001;BME280;5553;48.506;8.870;2022-09-13T01:49:10;96180.25;;;10.75;100.00
11001;BME280;5553;48.506;8.870;2022-09-13T01:51:46;96175.75;;;10.69;100.00
11001;BME280;5553;48.506;8.870;2022-09-13T01:54:19;96177.81;;;10.67;100.00
11001;BME280;5553;48.506;8.870;2022-09-13T01:56:54;96184.88;;;10.73;100.00
11001;BME280;5553;48.506;8.870;2022-09-13T01:59:28;96179.41;;;10.61;100.00
11001;BME280;5553;48.506;8.870;2022-09-13T02:02:06;96177.78;;;10.60;100.00
11001;BME280;5553;48.506;8.870;2022-09-13T02:04:38;96182.25;;;10.60;100.00
11001;BME280;5553;48.506;8.870;2022-09-13T02:07:10;96176.97;;;10.60;100.00
11001;BME280;5553;48.506;8.870;2022-09-13T02:09:44;96185.72;;;10.67;100.00
11001;BME280;5553;48.506;8.870;2022-09-13T02:12:17;96193.63;;;10.67;100.00
11001;BME280;5553;48.506;8.870;2022-09-13T02:14:51;96191.16;;;10.59;100.00
11001;BME280;5553;48.506;8.870;2022-09-13T08:16:21;96072.09;;;22.27;73.96
11001;BME280;5553;48.506;8.870;2022-09-13T08:18:52;96064.63;;;22.08;72.29
11001;BME280;5553;48.506;8.870;2022-09-13T08:21:21;96073.25;;;22.15;72.68
11001;BME280;5553;48.506;8.870;2022-09-13T08:23:53;96073.47;;;22.74;69.76
11001;BME280;5553;48.506;8.870;2022-09-13T08:26:24;96061.38;;;23.10;68.01
11001;BME280;5553;48.506;8.870;2022-09-13T08:28:55;96062.72;;;23.42;66.87
11001;BME280;5553;48.506;8.870;2022-09-13T08:31:27;96058.09;;;23.77;65.45
11001;BME280;5553;48.506;8.870;2022-09-13T08:33:56;96059.06;;;24.29;64.40
11001;BME280;5553;48.506;8.870;2022-09-13T08:36:26;96068.81;;;24.25;65.07
11001;BME280;5553;48.506;8.870;2022-09-13T08:38:57;96068.94;;;24.57;63.49
11001;BME280;5553;48.506;8.870;2022-09-13T08:44:45;96075.22;;;24.91;62.37
11001;BME280;5553;48.506;8.870;2022-09-13T08:47:29;96070.53;;;25.15;60.04
11001;BME280;5553;48.506;8.870;2022-09-13T08:50:04;96079.84;;;25.23;58.97
11001;BME280;5553;48.506;8.870;2022-09-13T08:52:37;96071.00;;;25.36;57.91
11001;BME280;5553;48.506;8.870;2022-09-13T08:55:20;96076.31;;;26.29;57.28
11001;BME280;5553;48.506;8.870;2022-09-13T08:57:54;96028.94;;;24.46;57.13
11001;BME280;5553;48.506;8.870;2022-09-13T09:00:27;96032.59;;;25.39;56.74
11001;BME280;5553;48.506;8.870;2022-09-13T09:03:10;96045.13;;;24.65;59.03
11001;BME280;5553;48.506;8.870;2022-09-13T09:05:45;96008.22;;;25.44;55.91
11001;BME280;5553;48.506;8.870;2022-09-13T09:08:24;96026.66;;;25.97;57.39
11001;BME280;5553;48.506;8.870;2022-09-13T09:10:57;95994.19;;;26.25;54.70
11001;BME280;5553;48.506;8.870;2022-09-13T09:13:28;95995.16;;;25.93;55.41
11001;BME280;5553;48.506;8.870;2022-09-13T09:16:00;95991.13;;;25.35;55.80
11001;BME280;5553;48.506;8.870;2022-09-13T09:18:38;95994.00;;;26.94;52.97
11001;BME280;5553;48.506;8.870;2022-09-13T09:21:11;95991.78;;;27.90;51.62
11001;BME280;5553;48.506;8.870;2022-09-13T09:23:46;95979.81;;;27.51;51.41
11001;BME280;5553;48.506;8.870;2022-09-13T09:26:18;95965.03;;;26.72;51.18
11001;BME280;5553;48.506;8.870;2022-09-13T09:28:48;95989.94;;;28.16;50.07
11001;BME280;5553;48.506;8.870;2022-09-13T09:31:23;96006.94;;;28.65;49.98
11001;BME280;5553;48.506;8.870;2022-09-13T09:34:08;96021.91;;;28.63;49.93
11001;BME280;5553;48.506;8.870;2022-09-13T09:36:40;96020.09;;;29.36;48.05
11001;BME280;5553;48.506;8.870;2022-09-13T09:39:13;95981.69;;;28.39;48.24
11001;BME280;5553;48.506;8.870;2022-09-13T09:41:43;95982.22;;;27.83;48.78
11001;BME280;5553;48.506;8.870;2022-09-13T09:44:19;95985.66;;;27.35;49.80
11001;BME280;5553;48.506;8.870;2022-09-13T09:46:49;95984.56;;;28.86;46.59
11001;BME280;5553;48.506;8.870;2022-09-13T09:49:25;95979.06;;;27.19;49.04
11001;BME280;5553;48.506;8.870;2022-09-13T09:52:09;96009.16;;;28.63;47.25
11001;BME280;5553;48.506;8.870;2022-09-13T09:54:39;95976.75;;;28.49;45.93
11001;BME280;5553;48.506;8.870;2022-09-13T09:57:07;95971.00;;;28.51;45.51
11001;BME280;5553;48.506;8.870;2022-09-13T09:59:35;95989.34;;;30.00;43.83
11001;BME280;5553;48.506;8.870;2022-09-13T10:02:14;95951.81;;;30.14;41.08
11001;BME280;5553;48.506;8.870;2022-09-13T10:04:55;95948.91;;;29.98;41.00
11001;BME280;5553;48.506;8.870;2022-09-13T10:07:29;95971.53;;;30.95;40.14
11001;BME280;5553;48.506;8.870;2022-09-13T10:10:04;95941.72;;;29.94;40.82
11001;BME280;5553;48.506;8.870;2022-09-13T10:12:35;95953.75;;;31.10;39.09
11001;BME280;5553;48.506;8.870;2022-09-13T10:15:10;95952.50;;;30.74;40.17
11001;BME280;5553;48.506;8.870;2022-09-13T10:17:42;95932.94;;;30.81;39.00
11001;BME280;5553;48.506;8.870;2022-09-13T10:20:21;95952.88;;;31.88;37.86
11001;BME280;5553;48.506;8.870;2022-09-13T10:23:19;95942.59;;;32.22;36.64
11001;BME280;5553;48.506;8.870;2022-09-13T10:25:57;95894.03;;;31.50;35.73
11001;BME280;5553;48.506;8.870;2022-09-13T10:28:28;95925.31;;;32.42;35.60
11001;BME280;5553;48.506;8.870;2022-09-13T10:30:58;95941.19;;;32.52;36.12
11001;BME280;5553;48.506;8.870;2022-09-13T10:33:30;95946.19;;;32.78;36.03
11001;BME280;5553;48.506;8.870;2022-09-13T10:36:05;95901.63;;;31.81;35.56
11001;BME280;5553;48.506;8.870;2022-09-13T10:38:36;95942.94;;;33.01;35.28
11001;BME280;5553;48.506;8.870;2022-09-13T10:41:08;95843.28;;;31.33;34.53
11001;BME280;5553;48.506;8.870;2022-09-13T10:43:37;95831.66;;;30.00;36.66
11001;BME280;5553;48.506;8.870;2022-09-13T10:46:11;95918.78;;;31.33;38.12
11001;BME280;5553;48.506;8.870;2022-09-13T10:48:46;95905.06;;;30.96;37.64
11001;BME280;5553;48.506;8.870;2022-09-13T10:51:32;95899.19;;;31.06;38.06
11001;BME280;5553;48.506;8.870;2022-09-13T10:54:16;95891.34;;;30.72;38.28
11001;BME280;5553;48.506;8.870;2022-09-13T10:56:46;95842.25;;;29.93;37.25
11001;BME280;5553;48.506;8.870;2022-09-13T10:59:23;95887.47;;;30.60;38.93
11001;BME280;5553;48.506;8.870;2022-09-13T11:02:19;95881.72;;;29.78;40.61
11001;BME280;5553;48.506;8.870;2022-09-13T11:05:07;95907.72;;;31.29;38.35
11001;BME280;5553;48.506;8.870;2022-09-13T11:07:51;95913.31;;;31.82;37.38
11001;BME280;5553;48.506;8.870;2022-09-13T11:10:29;95894.44;;;31.28;37.84
11001;BME280;5553;48.506;8.870;2022-09-13T11:13:06;95899.19;;;32.17;35.51
11001;BME280;5553;48.506;8.870;2022-09-13T11:15:50;95880.88;;;32.58;34.05
11001;BME280;5553;48.506;8.870;2022-09-13T11:18:42;95889.84;;;32.86;34.24
11001;BME280;5553;48.506;8.870;2022-09-13T11:21:26;95913.00;;;33.68;33.92
11001;BME280;5553;48.506;8.870;2022-09-13T11:24:12;95913.81;;;33.68;34.05
11001;BME280;5553;48.506;8.870;2022-09-13T11:26:53;95907.25;;;33.25;35.52
11001;BME280;5553;48.506;8.870;2022-09-13T11:29:45;95881.06;;;33.72;32.66
11001;BME280;5553;48.506;8.870;2022-09-13T11:32:27;95818.06;;;31.24;35.66
11001;BME280;5553;48.506;8.870;2022-09-13T11:35:13;95885.16;;;32.43;35.74
11001;BME280;5553;48.506;8.870;2022-09-13T11:37:51;95827.03;;;31.61;35.11
11001;BME280;5553;48.506;8.870;2022-09-13T11:40:34;95852.00;;;31.63;36.28
11001;BME280;5553;48.506;8.870;2022-09-13T11:43:21;95836.34;;;31.73;35.44
11001;BME280;5553;48.506;8.870;2022-09-13T11:46:01;95811.38;;;31.34;35.04
11001;BME280;5553;48.506;8.870;2022-09-13T11:48:56;95843.25;;;31.58;36.22
11001;BME280;5553;48.506;8.870;2022-09-13T11:51:40;95783.63;;;30.25;35.51
11001;BME280;5553;48.506;8.870;2022-09-13T11:54:25;95857.69;;;31.22;36.89
11001;BME280;5553;48.506;8.870;2022-09-13T11:57:03;95810.56;;;30.84;35.74
11001;BME280;5553;48.506;8.870;2022-09-13T11:59:37;95814.50;;;30.87;36.14
11001;BME280;5553;48.506;8.870;2022-09-13T12:02:15;95897.88;;;31.74;38.21
11001;BME280;5553;48.506;8.870;2022-09-13T12:04:50;95837.91;;;31.12;36.30
11001;BME280;5553;48.506;8.870;2022-09-13T12:07:27;95839.84;;;31.00;36.46
11001;BME280;5553;48.506;8.870;2022-09-13T12:10:02;95905.47;;;32.05;37.11
11001;BME280;5553;48.506;8.870;2022-09-13T12:12:35;95865.38;;;31.81;36.03
11001;BME280;5553;48.506;8.870;2022-09-13T12:15:06;95848.25;;;31.31;36.66
11001;BME280;5553;48.506;8.870;2022-09-13T12:17:43;95817.88;;;30.26;37.84
11001;BME280;5553;48.506;8.870;2022-09-13T12:20:16;95839.13;;;30.45;38.44
11001;BME280;5553;48.506;8.870;2022-09-13T12:22:46;95817.44;;;30.36;37.08
11001;BME280;5553;48.506;8.870;2022-09-13T12:25:18;95824.47;;;30.16;37.92
11001;BME280;5553;48.506;8.870;2022-09-13T12:27:56;95811.91;;;30.78;36.18
11001;BME280;5553;48.506;8.870;2022-09-13T12:30:32;95801.19;;;30.28;37.01
11001;BME280;5553;48.506;8.870;2022-09-13T12:33:05;95765.50;;;29.54;37.06
11001;BME280;5553;48.506;8.870;2022-09-13T12:35:36;95752.97;;;29.11;37.12
11001;BME280;5553;48.506;8.870;2022-09-13T12:38:18;95739.34;;;28.81;36.79
11001;BME280;5553;48.506;8.870;2022-09-13T12:41:10;95767.94;;;29.17;37.43
11001;BME280;5553;48.506;8.870;2022-09-13T12:44:04;95719.34;;;29.03;35.54
11001;BME280;5553;48.506;8.870;2022-09-13T12:46:53;95655.38;;;28.17;34.08
11001;BME280;5553;48.506;8.870;2022-09-13T12:49:36;95658.03;;;28.73;33.43
11001;BME280;5553;48.506;8.870;2022-09-13T12:52:30;95632.94;;;28.38;32.46
11001;BME280;5553;48.506;8.870;2022-09-13T12:58:07;95638.13;;;28.90;31.41
11001;BME280;5553;48.506;8.870;2022-09-13T13:01:01;95619.16;;;28.60;31.07
11001;BME280;5553;48.506;8.870;2022-09-13T13:03:36;95630.75;;;29.20;30.27
11001;BME280;5553;48.506;8.870;2022-09-13T13:06:18;95588.13;;;28.99;28.18
11001;BME280;5553;48.506;8.870;2022-09-13T13:08:51;95597.34;;;28.98;29.15
11001;BME280;5553;48.506;8.870;2022-09-13T13:11:22;95628.72;;;29.50;29.07
11001;BME280;5553;48.506;8.870;2022-09-13T13:13:54;95606.13;;;29.04;29.64
11001;BME280;5553;48.506;8.870;2022-09-13T13:16:31;95598.25;;;29.44;28.47
11001;BME280;5553;48.506;8.870;2022-09-13T13:19:01;95608.22;;;29.73;27.97
11001;BME280;5553;48.506;8.870;2022-09-13T13:21:35;95672.63;;;30.76;29.22
11001;BME280;5553;48.506;8.870;2022-09-13T13:33:12;95631.81;;;29.94;29.61
11001;BME280;5553;48.506;8.870;2022-09-13T13:35:42;95618.31;;;30.55;28.06
11001;BME280;5553;48.506;8.870;2022-09-13T13:41:17;95570.69;;;30.12;26.70
11001;BME280;5553;48.506;8.870;2022-09-13T13:43:58;95640.97;;;30.96;27.84
11001;BME280;5553;48.506;8.870;2022-09-13T13:46:29;95668.28;;;31.12;28.96
11001;BME280;5553;48.506;8.870;2022-09-13T13:54:59;95641.00;;;30.47;29.93
11001;BME280;5553;48.506;8.870;2022-09-13T13:57:30;95638.94;;;30.56;29.44
11001;BME280;5553;48.506;8.870;2022-09-13T14:00:12;95557.09;;;30.12;26.84
11001;BME280;5553;48.506;8.870;2022-09-13T14:02:55;95630.88;;;30.60;29.38
11001;BME280;5553;48.506;8.870;2022-09-13T14:05:32;95537.78;;;29.02;28.85
11001;BME280;5553;48.506;8.870;2022-09-13T14:08:28;95539.94;;;28.46;30.08
11001;BME280;5553;48.506;8.870;2022-09-13T14:11:05;95544.25;;;28.68;29.51
11001;BME280;5553;48.506;8.870;2022-09-13T14:13:43;95552.78;;;28.78;30.55
11001;BME280;5553;48.506;8.870;2022-09-13T14:16:24;95558.09;;;28.96;30.20
11001;BME280;5553;48.506;8.870;2022-09-13T14:19:08;95586.09;;;29.29;30.23
11001;BME280;5553;48.506;8.870;2022-09-13T14:21:42;95575.31;;;29.21;30.11
11001;BME280;5553;48.506;8.870;2022-09-13T14:24:16;95569.78;;;29.29;29.74
11001;BME280;5553;48.506;8.870;2022-09-13T14:26:47;95623.91;;;29.35;32.39
11001;BME280;5553;48.506;8.870;2022-09-13T14:29:17;95561.63;;;29.17;29.69
11001;BME280;5553;48.506;8.870;2022-09-13T14:31:50;95605.97;;;29.21;32.74
11001;BME280;5553;48.506;8.870;2022-09-13T14:34:25;95573.25;;;28.55;33.15
11001;BME280;5553;48.506;8.870;2022-09-13T14:36:56;95497.16;;;27.92;30.92
11001;BME280;5553;48.506;8.870;2022-09-13T14:39:26;95575.72;;;28.30;33.35
11001;BME280;5553;48.506;8.870;2022-09-13T14:42:00;95536.63;;;28.40;31.27
11001;BME280;5553;48.506;8.870;2022-09-13T14:44:28;95586.22;;;28.41;34.14
11001;BME280;5553;48.506;8.870;2022-09-13T14:47:05;95564.03;;;28.09;33.93
11001;BME280;5553;48.506;8.870;2022-09-13T14:49:38;95568.63;;;28.17;34.58
11001;BME280;5553;48.506;8.870;2022-09-13T14:52:14;95542.69;;;28.07;33.48
11001;BME280;5553;48.506;8.870;2022-09-13T14:54:46;95535.09;;;27.92;33.66
11001;BME280;5553;48.506;8.870;2022-09-13T14:57:22;95554.97;;;28.05;34.22
11001;BME280;5553;48.506;8.870;2022-09-13T14:59:55;95557.84;;;28.00;35.14
11001;BME280;5553;48.506;8.870;2022-09-13T15:02:30;95574.06;;;28.47;34.61
11001;BME280;5553;48.506;8.870;2022-09-13T15:04:59;95566.72;;;28.47;34.61
11001;BME280;5553;48.506;8.870;2022-09-13T15:07:30;95576.53;;;28.81;33.57
11001;BME280;5553;48.506;8.870;2022-09-13T15:10:07;95613.22;;;28.88;36.06
11001;BME280;5553;48.506;8.870;2022-09-13T15:12:36;95558.81;;;28.63;33.47
11001;BME280;5553;48.506;8.870;2022-09-13T15:15:24;95594.25;;;28.58;35.97
11001;BME280;5553;48.506;8.870;2022-09-13T15:17:57;95572.66;;;28.41;35.25
11001;BME280;5553;48.506;8.870;2022-09-13T15:20:28;95570.13;;;28.35;35.53
11001;BME280;5553;48.506;8.870;2022-09-13T15:22:57;95550.69;;;28.04;35.39
11001;BME280;5553;48.506;8.870;2022-09-13T15:25:27;95565.75;;;27.84;37.15
11001;BME280;5553;48.506;8.870;2022-09-13T15:27:56;95549.72;;;27.44;37.81
11001;BME280;5553;48.506;8.870;2022-09-13T15:30:28;95542.72;;;27.34;37.23
11001;BME280;5553;48.506;8.870;2022-09-13T15:33:16;95529.38;;;27.12;37.37
11001;BME280;5553;48.506;8.870;2022-09-13T15:35:46;95551.03;;;26.94;39.04
11001;BME280;5553;48.506;8.870;2022-09-13T15:38:23;95555.47;;;26.90;39.46
11001;BME280;5553;48.506;8.870;2022-09-13T15:41:01;95568.22;;;26.64;40.31
11001;BME280;5553;48.506;8.870;2022-09-13T15:43:29;95549.13;;;26.86;38.83
11001;BME280;5553;48.506;8.870;2022-09-13T15:45:58;95562.63;;;26.52;40.53
11001;BME280;5553;48.506;8.870;2022-09-13T15:48:31;95566.84;;;26.35;41.29
11001;BME280;5553;48.506;8.870;2022-09-13T15:51:06;95552.28;;;26.54;40.09
11001;BME280;5553;48.506;8.870;2022-09-13T15:53:36;95554.13;;;26.27;41.09
11001;BME280;5553;48.506;8.870;2022-09-13T15:56:05;95558.84;;;26.21;41.17
11001;BME280;5553;48.506;8.870;2022-09-13T15:58:35;95544.38;;;26.17;41.13
11001;BME280;5553;48.506;8.870;2022-09-13T16:01:03;95550.09;;;26.07;41.30
11001;BME280;5553;48.506;8.870;2022-09-13T16:03:34;95569.09;;;25.93;41.74
11001;BME280;5553;48.506;8.870;2022-09-13T16:06:03;95565.44;;;25.89;41.87
11001;BME280;5553;48.506;8.870;2022-09-13T16:08:33;95567.03;;;25.90;41.36
11001;BME280;5553;48.506;8.870;2022-09-13T16:11:01;95572.31;;;25.73;42.86
11001;BME280;5553;48.506;8.870;2022-09-13T16:13:30;95575.25;;;25.54;43.23
11001;BME280;5553;48.506;8.870;2022-09-13T16:15:58;95572.50;;;25.45;43.44
11001;BME280;5553;48.506;8.870;2022-09-13T16:18:27;95570.47;;;25.51;43.13
11001;BME280;5553;48.506;8.870;2022-09-13T16:20:58;95577.28;;;25.26;44.34
11001;BME280;5553;48.506;8.870;2022-09-13T16:23:26;95590.16;;;25.29;45.39
11001;BME280;5553;48.506;8.870;2022-09-13T16:25:58;95585.25;;;25.31;44.34
11001;BME280;5553;48.506;8.870;2022-09-13T16:28:27;95616.31;;;25.20;46.60
11001;BME280;5553;48.506;8.870;2022-09-13T16:30:55;95592.13;;;25.15;45.49
11001;BME280;5553;48.506;8.870;2022-09-13T16:33:23;95609.63;;;25.03;46.59
11001;BME280;5553;48.506;8.870;2022-09-13T16:35:51;95607.66;;;24.95;46.36
11001;BME280;5553;48.506;8.870;2022-09-13T16:38:22;95608.47;;;24.96;46.51
11001;BME280;5553;48.506;8.870;2022-09-13T16:40:51;95601.03;;;24.79;46.97
11001;BME280;5553;48.506;8.870;2022-09-13T16:43:19;95610.03;;;24.61;48.14
11001;BME280;5553;48.506;8.870;2022-09-13T16:45:47;95610.91;;;24.70;47.82
11001;BME280;5553;48.506;8.870;2022-09-13T16:48:16;95631.31;;;24.62;49.64
11001;BME280;5553;48.506;8.870;2022-09-13T16:50:44;95629.69;;;24.61;49.18
11001;BME280;5553;48.506;8.870;2022-09-13T16:53:12;95633.00;;;24.44;49.56
11001;BME280;5553;48.506;8.870;2022-09-13T16:55:43;95636.81;;;24.43;49.86
11001;BME280;5553;48.506;8.870;2022-09-13T16:58:12;95649.25;;;24.39;50.42
11001;BME280;5553;48.506;8.870;2022-09-13T17:00:42;95627.59;;;24.30;48.77
11001;BME280;5553;48.506;8.870;2022-09-13T17:03:11;95637.28;;;24.31;50.05
11001;BME280;5553;48.506;8.870;2022-09-13T17:05:39;95614.44;;;24.29;48.72
11001;BME280;5553;48.506;8.870;2022-09-13T17:08:07;95608.53;;;24.13;49.25
11001;BME280;5553;48.506;8.870;2022-09-13T17:10:36;95606.34;;;24.15;48.89
11001;BME280;5553;48.506;8.870;2022-09-13T17:13:07;95614.44;;;24.01;49.49
11001;BME280;5553;48.506;8.870;2022-09-13T17:15:40;95615.91;;;23.80;49.84
11001;BME280;5553;48.506;8.870;2022-09-13T17:18:08;95604.50;;;23.69;49.74
11001;BME280;5553;48.506;8.870;2022-09-13T17:20:45;95612.63;;;23.50;50.80
11001;BME280;5553;48.506;8.870;2022-09-13T17:23:14;95607.09;;;23.41;50.55
11001;BME280;5553;48.506;8.870;2022-09-13T17:25:43;95608.91;;;23.46;49.98
11001;BME280;5553;48.506;8.870;2022-09-13T17:28:16;95610.47;;;23.33;49.83
11001;BME280;5553;48.506;8.870;2022-09-13T17:30:46;95598.78;;;23.24;50.08
11001;BME280;5553;48.506;8.870;2022-09-13T17:33:15;95604.09;;;23.10;50.30
11001;BME280;5553;48.506;8.870;2022-09-13T17:35:44;95618.66;;;23.09;51.01
11001;BME280;5553;48.506;8.870;2022-09-13T17:38:12;95617.53;;;22.91;51.27
11001;BME280;5553;48.506;8.870;2022-09-13T17:40:41;95621.16;;;22.82;51.55
11001;BME280;5553;48.506;8.870;2022-09-13T17:43:09;95618.53;;;22.77;51.43
11001;BME280;5553;48.506;8.870;2022-09-13T17:45:40;95628.63;;;22.47;52.85
11001;BME280;5553;48.506;8.870;2022-09-13T17:48:08;95628.66;;;22.42;53.57
11001;BME280;5553;48.506;8.870;2022-09-13T17:50:37;95622.22;;;22.43;53.29
11001;BME280;5553;48.506;8.870;2022-09-13T17:53:05;95619.38;;;22.34;53.09
11001;BME280;5553;48.506;8.870;2022-09-13T17:55:34;95613.66;;;22.17;53.13
11001;BME280;5553;48.506;8.870;2022-09-13T17:58:02;95668.81;;;21.46;58.29
11001;BME280;5553;48.506;8.870;2022-09-13T18:00:30;95660.88;;;21.65;56.95
11001;BME280;5553;48.506;8.870;2022-09-13T18:03:01;95655.66;;;21.79;56.26
11001;BME280;5553;48.506;8.870;2022-09-13T18:05:30;95653.56;;;21.70;56.33
11001;BME280;5553;48.506;8.870;2022-09-13T18:07:58;95653.31;;;21.72;56.25
11001;BME280;5553;48.506;8.870;2022-09-13T18:10:26;95657.91;;;21.66;56.22
11001;BME280;5553;48.506;8.870;2022-09-13T18:12:55;95662.31;;;21.52;56.55
11001;BME280;5553;48.506;8.870;2022-09-13T18:15:24;95691.72;;;21.23;58.75
11001;BME280;5553;48.506;8.870;2022-09-13T18:17:53;95703.00;;;20.75;60.15
11001;BME280;5553;48.506;8.870;2022-09-13T18:20:24;95691.91;;;20.97;58.88
11001;BME280;5553;48.506;8.870;2022-09-13T18:22:52;95685.94;;;21.05;57.80
11001;BME280;5553;48.506;8.870;2022-09-13T18:25:20;95691.00;;;21.12;57.93
11001;BME280;5553;48.506;8.870;2022-09-13T18:27:49;95688.19;;;20.93;58.25
11001;BME280;5553;48.506;8.870;2022-09-13T18:30:17;95697.50;;;21.06;57.67
11001;BME280;5553;48.506;8.870;2022-09-13T18:32:46;95694.22;;;21.09;57.50
11001;BME280;5553;48.506;8.870;2022-09-13T18:35:14;95697.81;;;20.99;58.53
11001;BME280;5553;48.506;8.870;2022-09-13T18:37:45;95716.31;;;20.91;59.56
11001;BME280;5553;48.506;8.870;2022-09-13T18:40:15;95718.50;;;20.83;59.87
11001;BME280;5553;48.506;8.870;2022-09-13T18:42:43;95717.44;;;20.85;59.33
11001;BME280;5553;48.506;8.870;2022-09-13T18:45:12;95722.50;;;20.91;59.33
11001;BME280;5553;48.506;8.870;2022-09-13T18:47:40;95721.69;;;20.91;59.74
11001;BME280;5553;48.506;8.870;2022-09-13T18:50:08;95729.19;;;20.89;60.37
11001;BME280;5553;48.506;8.870;2022-09-13T18:52:37;95721.69;;;20.91;60.35
11001;BME280;5553;48.506;8.870;2022-09-13T18:55:10;95727.34;;;20.84;60.86
11001;BME280;5553;48.506;8.870;2022-09-13T18:57:38;95732.47;;;20.80;61.25
11001;BME280;5553;48.506;8.870;2022-09-13T19:00:08;95738.81;;;20.95;60.80
11001;BME280;5553;48.506;8.870;2022-09-13T19:02:37;95776.22;;;20.55;65.59
11001;BME280;5553;48.506;8.870;2022-09-13T19:05:06;95766.59;;;20.34;66.59
11001;BME280;5553;48.506;8.870;2022-09-13T19:07:35;95769.56;;;20.38;65.76
11001;BME280;5553;48.506;8.870;2022-09-13T19:10:06;95759.34;;;20.40;65.71
11001;BME280;5553;48.506;8.870;2022-09-13T19:12:37;95764.16;;;20.43;65.49
11001;BME280;5553;48.506;8.870;2022-09-13T19:15:07;95755.34;;;20.37;65.18
11001;BME280;5553;48.506;8.870;2022-09-13T19:17:35;95756.69;;;20.40;65.08
11001;BME280;5553;48.506;8.870;2022-09-13T19:20:05;95762.56;;;20.42;65.15
11001;BME280;5553;48.506;8.870;2022-09-13T19:22:34;95751.88;;;20.31;65.31
11001;BME280;5553;48.506;8.870;2022-09-13T19:25:02;95763.13;;;20.39;64.84
11001;BME280;5553;48.506;8.870;2022-09-13T19:27:31;95764.16;;;20.48;64.80
11001;BME280;5553;48.506;8.870;2022-09-13T19:30:02;95764.72;;;20.40;65.63
11001;BME280;5553;48.506;8.870;2022-09-13T19:32:32;95766.84;;;20.43;65.05
11001;BME280;5553;48.506;8.870;2022-09-13T19:35:00;95769.53;;;20.32;65.91
11001;BME280;5553;48.506;8.870;2022-09-13T19:37:29;95759.88;;;20.36;65.51
11001;BME280;5553;48.506;8.870;2022-09-13T19:39:57;95780.81;;;20.29;66.60
11001;BME280;5553;48.506;8.870;2022-09-13T19:42:25;95792.63;;;20.08;69.95
11001;BME280;5553;48.506;8.870;2022-09-13T19:44:54;95773.88;;;19.98;70.58
11001;BME280;5553;48.506;8.870;2022-09-13T19:47:25;95776.81;;;19.96;71.22
11001;BME280;5553;48.506;8.870;2022-09-13T19:49:53;95777.63;;;19.97;71.38
11001;BME280;5553;48.506;8.870;2022-09-13T19:52:23;95776.28;;;19.99;71.61
11001;BME280;5553;48.506;8.870;2022-09-13T19:54:52;95771.19;;;20.03;70.88
11001;BME280;5553;48.506;8.870;2022-09-13T19:57:20;95763.97;;;19.88;71.38
11001;BME280;5553;48.506;8.870;2022-09-13T19:59:49;95763.16;;;19.87;70.70
11001;BME280;5553;48.506;8.870;2022-09-13T20:02:17;95757.81;;;19.93;70.10
11001;BME280;5553;48.506;8.870;2022-09-13T20:04:48;95754.06;;;19.88;70.13
11001;BME280;5553;48.506;8.870;2022-09-13T20:07:17;95759.94;;;19.85;69.88
11001;BME280;5553;48.506;8.870;2022-09-13T20:09:45;95766.13;;;19.71;70.95